sensor_id;sensor_type;location;lat;lon;timestamp;pressure;altitude;pressure_sealevel;temperature;humidity
40155;BME280;25875;48.202;16.334;2023-05-03T00:01:44;99665.38;;;13.33;70.78
40155;BME280;25875;48.202;16.334;2023-05-03T00:04:10;99665.38;;;13.33;70.57
40155;BME280;25875;48.202;16.334;2023-05-03T00:06:41;99656.81;;;13.28;70.86
40155;BME280;25875;48.202;16.334;2023-05-03T00:09:08;99659.28;;;13.31;70.91
40155;BME280;25875;48.202;16.334;2023-05-03T00:11:35;99673.53;;;13.30;70.76
40155;BME280;25875;48.202;16.334;2023-05-03T00:14:02;99678.09;;;13.28;70.82
40155;BME280;25875;48.202;16.334;2023-05-03T00:16:29;99677.16;;;13.29;71.00
40155;BME280;25875;48.202;16.334;2023-05-03T00:18:57;99677.16;;;13.29;70.66
40155;BME280;25875;48.202;16.334;2023-05-03T00:21:23;99670.97;;;13.28;71.09
40155;BME280;25875;48.202;16.334;2023-05-03T00:23:51;99678.09;;;13.28;70.73
40155;BME280;25875;48.202;16.334;2023-05-03T00:26:18;99680.94;;;13.25;70.68
40155;BME280;25875;48.202;16.334;2023-05-03T00:28:44;99671.34;;;13.22;71.05
40155;BME280;25875;48.202;16.334;2023-05-03T00:31:11;99675.81;;;13.22;70.78
40155;BME280;25875;48.202;16.334;2023-05-03T00:33:38;99625.69;;;12.86;70.79
40155;BME280;25875;48.202;16.334;2023-05-03T00:36:07;99675.81;;;13.22;70.81
40155;BME280;25875;48.202;16.334;2023-05-03T00:38:34;99648.16;;;13.10;70.85
40155;BME280;25875;48.202;16.334;2023-05-03T00:41:01;99668.22;;;13.15;71.03
40155;BME280;25875;48.202;16.334;2023-05-03T00:43:29;99669.16;;;13.14;70.87
40155;BME280;25875;48.202;16.334;2023-05-03T00:45:56;99669.06;;;13.16;71.00
40155;BME280;25875;48.202;16.334;2023-05-03T00:48:23;99626.28;;;12.91;70.81
40155;BME280;25875;48.202;16.334;2023-05-03T00:50:50;99662.88;;;13.15;70.76
40155;BME280;25875;48.202;16.334;2023-05-03T00:53:20;99621.81;;;12.91;70.44
40155;BME280;25875;48.202;16.334;2023-05-03T00:55:51;99672.59;;;13.16;70.71
40155;BME280;25875;48.202;16.334;2023-05-03T00:58:18;99660.13;;;13.17;70.56
40155;BME280;25875;48.202;16.334;2023-05-03T01:00:45;99662.88;;;13.15;70.53
40155;BME280;25875;48.202;16.334;2023-05-03T01:03:12;99667.34;;;13.15;70.59
40155;BME280;25875;48.202;16.334;2023-05-03T01:05:50;99644.25;;;13.01;70.69
40155;BME280;25875;48.202;16.334;2023-05-03T01:08:29;99661.28;;;13.13;70.60
40155;BME280;25875;48.202;16.334;2023-05-03T01:11:01;99604.38;;;12.71;70.34
40155;BME280;25875;48.202;16.334;2023-05-03T01:13:40;99663.16;;;13.11;70.62
40155;BME280;25875;48.202;16.334;2023-05-03T01:16:15;99597.16;;;12.73;70.38
40155;BME280;25875;48.202;16.334;2023-05-03T01:18:45;99645.38;;;12.97;70.10
40155;BME280;25875;48.202;16.334;2023-05-03T01:21:16;99667.53;;;13.12;70.43
40155;BME280;25875;48.202;16.334;2023-05-03T01:23:53;99672.00;;;13.11;70.58
40155;BME280;25875;48.202;16.334;2023-05-03T01:26:24;99663.16;;;13.11;70.42
40155;BME280;25875;48.202;16.334;2023-05-03T01:28:52;99670.28;;;13.10;70.30
40155;BME280;25875;48.202;16.334;2023-05-03T01:31:22;99659.56;;;13.12;70.16
40155;BME280;25875;48.202;16.334;2023-05-03T01:34:00;99659.66;;;13.10;70.40
40155;BME280;25875;48.202;16.334;2023-05-03T01:36:30;99663.63;;;13.03;70.32
40155;BME280;25875;48.202;16.334;2023-05-03T01:39:05;99666.78;;;13.10;69.96
40155;BME280;25875;48.202;16.334;2023-05-03T01:41:36;99649.38;;;13.04;70.38
40155;BME280;25875;48.202;16.334;2023-05-03T01:44:06;99663.25;;;13.09;69.98
40155;BME280;25875;48.202;16.334;2023-05-03T01:46:41;99666.88;;;13.08;70.25
40155;BME280;25875;48.202;16.334;2023-05-03T01:49:07;99661.53;;;13.08;69.94
40155;BME280;25875;48.202;16.334;2023-05-03T01:51:36;99660.59;;;13.09;70.08
40155;BME280;25875;48.202;16.334;2023-05-03T01:54:03;99663.25;;;13.09;70.22
40155;BME280;25875;48.202;16.334;2023-05-03T01:56:32;99658.88;;;13.08;69.91
40155;BME280;25875;48.202;16.334;2023-05-03T01:59:01;99660.59;;;13.09;69.85
40155;BME280;25875;48.202;16.334;2023-05-03T02:01:28;99670.38;;;13.09;70.11
40155;BME280;25875;48.202;16.334;2023-05-03T02:03:54;99663.34;;;13.08;69.79
40155;BME280;25875;48.202;16.334;2023-05-03T02:06:23;99663.44;;;13.06;69.99
40155;BME280;25875;48.202;16.334;2023-05-03T02:08:49;99666.09;;;13.06;70.05
40155;BME280;25875;48.202;16.334;2023-05-03T02:11:16;99673.13;;;13.07;69.96
40155;BME280;25875;48.202;16.334;2023-05-03T02:13:43;99672.38;;;13.05;69.67
40155;BME280;25875;48.202;16.334;2023-05-03T02:16:11;99662.69;;;13.04;69.82
40155;BME280;25875;48.202;16.334;2023-05-03T02:18:38;99671.63;;;13.03;69.76
40155;BME280;25875;48.202;16.334;2023-05-03T02:21:07;99670.00;;;13.01;69.53
40155;BME280;25875;48.202;16.334;2023-05-03T02:23:34;99636.41;;;12.84;69.96
40155;BME280;25875;48.202;16.334;2023-05-03T02:26:01;99666.47;;;13.00;69.55
40155;BME280;25875;48.202;16.334;2023-05-03T02:28:28;99612.06;;;12.62;69.62
40155;BME280;25875;48.202;16.334;2023-05-03T02:30:55;99668.38;;;12.98;69.47
40155;BME280;25875;48.202;16.334;2023-05-03T02:33:23;99649.91;;;12.81;69.57
40155;BME280;25875;48.202;16.334;2023-05-03T02:35:50;99678.25;;;12.96;69.42
40155;BME280;25875;48.202;16.334;2023-05-03T02:38:16;99678.25;;;12.96;69.44
40155;BME280;25875;48.202;16.334;2023-05-03T02:40:43;99665.41;;;12.89;69.65
40155;BME280;25875;48.202;16.334;2023-05-03T02:43:10;99672.84;;;12.98;69.57
40155;BME280;25875;48.202;16.334;2023-05-03T02:45:36;99552.25;;;12.25;69.34
40155;BME280;25875;48.202;16.334;2023-05-03T02:48:03;99670.44;;;12.93;69.32
40155;BME280;25875;48.202;16.334;2023-05-03T02:50:31;99666.94;;;12.93;69.14
40155;BME280;25875;48.202;16.334;2023-05-03T02:52:58;99664.38;;;12.91;69.34
40155;BME280;25875;48.202;16.334;2023-05-03T02:55:25;99667.97;;;12.90;69.39
40155;BME280;25875;48.202;16.334;2023-05-03T02:57:51;99669.88;;;12.88;69.15
40155;BME280;25875;48.202;16.334;2023-05-03T03:00:18;99668.16;;;12.87;69.48
40155;BME280;25875;48.202;16.334;2023-05-03T03:02:45;99671.59;;;12.89;69.35
40155;BME280;25875;48.202;16.334;2023-05-03T03:05:12;99668.91;;;12.89;69.36
40155;BME280;25875;48.202;16.334;2023-05-03T03:07:40;99664.56;;;12.88;69.15
40155;BME280;25875;48.202;16.334;2023-05-03T03:10:07;99662.84;;;12.87;69.15
40155;BME280;25875;48.202;16.334;2023-05-03T03:12:34;99661.03;;;12.88;69.07
40155;BME280;25875;48.202;16.334;2023-05-03T03:15:02;99658.38;;;12.88;69.06
40155;BME280;25875;48.202;16.334;2023-05-03T03:17:29;99581.44;;;12.40;68.89
40155;BME280;25875;48.202;16.334;2023-05-03T03:19:56;99658.47;;;12.86;69.21
40155;BME280;25875;48.202;16.334;2023-05-03T03:22:25;99663.78;;;12.86;68.84
40155;BME280;25875;48.202;16.334;2023-05-03T03:24:53;99666.44;;;12.86;68.80
40155;BME280;25875;48.202;16.334;2023-05-03T03:27:19;99542.38;;;12.11;69.04
40155;BME280;25875;48.202;16.334;2023-05-03T03:29:48;99682.41;;;12.86;68.89
40155;BME280;25875;48.202;16.334;2023-05-03T03:32:15;99653.19;;;12.70;69.17
40155;BME280;25875;48.202;16.334;2023-05-03T03:34:41;99687.72;;;12.86;68.84
40155;BME280;25875;48.202;16.334;2023-05-03T03:37:08;99683.25;;;12.87;69.03
40155;BME280;25875;48.202;16.334;2023-05-03T03:39:35;99678.78;;;12.87;69.04
40155;BME280;25875;48.202;16.334;2023-05-03T03:42:05;99680.59;;;12.87;68.94
40155;BME280;25875;48.202;16.334;2023-05-03T03:44:32;99694.84;;;12.86;68.62
40155;BME280;25875;48.202;16.334;2023-05-03T03:46:59;99693.13;;;12.84;68.66
40155;BME280;25875;48.202;16.334;2023-05-03T03:49:26;99688.75;;;12.83;69.00
40155;BME280;25875;48.202;16.334;2023-05-03T03:51:52;99691.41;;;12.83;68.77
40155;BME280;25875;48.202;16.334;2023-05-03T03:54:19;99694.94;;;12.84;68.75
40155;BME280;25875;48.202;16.334;2023-05-03T03:56:46;99695.78;;;12.84;68.94
40155;BME280;25875;48.202;16.334;2023-05-03T03:59:14;99694.84;;;12.86;68.64
40155;BME280;25875;48.202;16.334;2023-05-03T04:01:41;99695.78;;;12.84;69.00
40155;BME280;25875;48.202;16.334;2023-05-03T04:04:07;99702.06;;;12.83;69.01
40155;BME280;25875;48.202;16.334;2023-05-03T04:06:34;99701.13;;;12.84;68.67
40155;BME280;25875;48.202;16.334;2023-05-03T04:09:01;99696.66;;;12.85;68.82
40155;BME280;25875;48.202;16.334;2023-05-03T04:11:27;99671.22;;;12.65;68.71
40155;BME280;25875;48.202;16.334;2023-05-03T04:13:54;99704.91;;;12.80;69.15
40155;BME280;25875;48.202;16.334;2023-05-03T04:16:22;99705.75;;;12.81;69.07
40155;BME280;25875;48.202;16.334;2023-05-03T04:18:49;99702.16;;;12.82;68.84
40155;BME280;25875;48.202;16.334;2023-05-03T04:21:16;99708.31;;;12.82;69.28
40155;BME280;25875;48.202;16.334;2023-05-03T04:23:44;99716.22;;;12.84;69.19
40155;BME280;25875;48.202;16.334;2023-05-03T04:26:11;99642.38;;;12.43;69.13
40155;BME280;25875;48.202;16.334;2023-05-03T04:28:38;99713.47;;;12.86;69.07
40155;BME280;25875;48.202;16.334;2023-05-03T04:31:04;99724.97;;;12.86;69.09
40155;BME280;25875;48.202;16.334;2023-05-03T04:33:32;99729.44;;;12.86;69.21
40155;BME280;25875;48.202;16.334;2023-05-03T04:35:59;99728.47;;;12.87;69.38
40155;BME280;25875;48.202;16.334;2023-05-03T04:38:26;99730.19;;;12.88;69.10
40155;BME280;25875;48.202;16.334;2023-05-03T04:40:53;99737.22;;;12.89;69.53
40155;BME280;25875;48.202;16.334;2023-05-03T04:43:20;99734.56;;;12.89;69.42
40155;BME280;25875;48.202;16.334;2023-05-03T04:45:47;99734.56;;;12.89;69.23
40155;BME280;25875;48.202;16.334;2023-05-03T04:48:14;99737.13;;;12.90;69.36
40155;BME280;25875;48.202;16.334;2023-05-03T04:50:43;99747.59;;;12.93;69.42
40155;BME280;25875;48.202;16.334;2023-05-03T04:53:10;99744.00;;;12.94;69.15
40155;BME280;25875;48.202;16.334;2023-05-03T04:55:37;99750.06;;;12.96;69.16
40155;BME280;25875;48.202;16.334;2023-05-03T04:58:03;99748.28;;;12.97;68.97
40155;BME280;25875;48.202;16.334;2023-05-03T05:00:30;99754.38;;;12.99;68.86
40155;BME280;25875;48.202;16.334;2023-05-03T05:02:57;99757.03;;;12.99;69.05
40155;BME280;25875;48.202;16.334;2023-05-03T05:05:24;99760.53;;;12.99;68.90
40155;BME280;25875;48.202;16.334;2023-05-03T05:07:52;99720.38;;;12.74;68.71
40155;BME280;25875;48.202;16.334;2023-05-03T05:10:19;99769.38;;;13.00;68.44
40155;BME280;25875;48.202;16.334;2023-05-03T05:12:45;99763.97;;;13.01;68.46
40155;BME280;25875;48.202;16.334;2023-05-03T05:15:12;99768.34;;;13.02;68.61
40155;BME280;25875;48.202;16.334;2023-05-03T05:17:39;99773.50;;;13.05;68.07
40155;BME280;25875;48.202;16.334;2023-05-03T05:20:06;99765.31;;;13.08;68.20
40155;BME280;25875;48.202;16.334;2023-05-03T05:22:36;99777.59;;;13.11;68.03
40155;BME280;25875;48.202;16.334;2023-05-03T05:25:06;99762.47;;;13.11;67.56
40155;BME280;25875;48.202;16.334;2023-05-03T05:27:33;99765.06;;;13.13;67.98
40155;BME280;25875;48.202;16.334;2023-05-03T05:30:00;99733.94;;;12.99;67.73
40155;BME280;25875;48.202;16.334;2023-05-03T05:32:27;99723.84;;;12.90;67.55
40155;BME280;25875;48.202;16.334;2023-05-03T05:34:54;99769.06;;;13.20;67.54
40155;BME280;25875;48.202;16.334;2023-05-03T05:37:21;99779.63;;;13.22;67.73
40155;BME280;25875;48.202;16.334;2023-05-03T05:39:48;99770.69;;;13.23;67.40
40155;BME280;25875;48.202;16.334;2023-05-03T05:42:16;99774.13;;;13.25;67.13
40155;BME280;25875;48.202;16.334;2023-05-03T05:44:43;99775.72;;;13.27;67.52
40155;BME280;25875;48.202;16.334;2023-05-03T05:47:09;99786.28;;;13.29;67.30
40155;BME280;25875;48.202;16.334;2023-05-03T05:49:36;99778.97;;;13.32;67.15
40155;BME280;25875;48.202;16.334;2023-05-03T05:52:03;99789.44;;;13.35;67.27
40155;BME280;25875;48.202;16.334;2023-05-03T05:54:30;99786.50;;;13.40;66.82
40155;BME280;25875;48.202;16.334;2023-05-03T05:56:57;99789.97;;;13.42;66.92
40155;BME280;25875;48.202;16.334;2023-05-03T05:59:25;99799.56;;;13.44;66.82
40155;BME280;25875;48.202;16.334;2023-05-03T06:01:51;99801.19;;;13.47;66.45
40155;BME280;25875;48.202;16.334;2023-05-03T06:04:18;99795.59;;;13.52;66.49
40155;BME280;25875;48.202;16.334;2023-05-03T06:06:45;99620.94;;;12.46;66.14
40155;BME280;25875;48.202;16.334;2023-05-03T06:09:12;99804.06;;;13.58;65.96
40155;BME280;25875;48.202;16.334;2023-05-03T06:11:39;99809.31;;;13.60;66.25
40155;BME280;25875;48.202;16.334;2023-05-03T06:14:07;99802.84;;;13.64;66.21
40155;BME280;25875;48.202;16.334;2023-05-03T06:16:36;99810.56;;;13.68;65.87
40155;BME280;25875;48.202;16.334;2023-05-03T06:19:02;99811.91;;;13.75;65.92
40155;BME280;25875;48.202;16.334;2023-05-03T06:21:30;99807.25;;;13.79;65.62
40155;BME280;25875;48.202;16.334;2023-05-03T06:23:56;99655.53;;;12.91;65.28
40155;BME280;25875;48.202;16.334;2023-05-03T06:26:23;99813.13;;;13.84;65.40
40155;BME280;25875;48.202;16.334;2023-05-03T06:28:50;99808.38;;;13.89;65.38
40155;BME280;25875;48.202;16.334;2023-05-03T06:31:17;99812.38;;;13.96;65.10
40155;BME280;25875;48.202;16.334;2023-05-03T06:33:45;99812.75;;;14.04;64.98
40155;BME280;25875;48.202;16.334;2023-05-03T06:36:12;99802.19;;;14.03;64.39
40155;BME280;25875;48.202;16.334;2023-05-03T06:38:38;99819.72;;;14.21;64.82
40155;BME280;25875;48.202;16.334;2023-05-03T06:41:05;99817.41;;;14.29;64.20
40155;BME280;25875;48.202;16.334;2023-05-03T06:43:32;99814.16;;;14.38;64.21
40155;BME280;25875;48.202;16.334;2023-05-03T06:45:59;99812.16;;;14.42;64.03
40155;BME280;25875;48.202;16.334;2023-05-03T06:48:25;99821.69;;;14.46;63.98
40155;BME280;25875;48.202;16.334;2023-05-03T06:50:55;99819.88;;;14.47;63.76
40155;BME280;25875;48.202;16.334;2023-05-03T06:53:21;99817.09;;;14.48;63.50
40155;BME280;25875;48.202;16.334;2023-05-03T06:55:48;99812.44;;;14.52;63.48
40155;BME280;25875;48.202;16.334;2023-05-03T06:58:15;99809.66;;;14.53;63.62
40155;BME280;25875;48.202;16.334;2023-05-03T07:00:42;99813.94;;;14.56;63.56
40155;BME280;25875;48.202;16.334;2023-05-03T07:03:09;99808.38;;;14.60;63.61
40155;BME280;25875;48.202;16.334;2023-05-03T07:05:35;99816.09;;;14.65;63.10
40155;BME280;25875;48.202;16.334;2023-05-03T07:08:04;99811.50;;;14.67;62.95
40155;BME280;25875;48.202;16.334;2023-05-03T07:10:30;99815.13;;;14.66;62.77
40155;BME280;25875;48.202;16.334;2023-05-03T07:12:57;99777.50;;;14.42;63.00
40155;BME280;25875;48.202;16.334;2023-05-03T07:15:24;99820.56;;;14.64;62.94
40155;BME280;25875;48.202;16.334;2023-05-03T07:17:50;99819.50;;;14.67;62.69
40155;BME280;25875;48.202;16.334;2023-05-03T07:20:17;99822.63;;;14.73;62.94
40155;BME280;25875;48.202;16.334;2023-05-03T07:22:44;99816.06;;;14.79;62.46
40155;BME280;25875;48.202;16.334;2023-05-03T07:25:13;99812.31;;;14.82;62.43
40155;BME280;25875;48.202;16.334;2023-05-03T07:27:42;99813.19;;;14.82;62.23
40155;BME280;25875;48.202;16.334;2023-05-03T07:30:09;99818.38;;;14.98;62.20
40155;BME280;25875;48.202;16.334;2023-05-03T07:32:35;99815.53;;;15.14;61.79
40155;BME280;25875;48.202;16.334;2023-05-03T07:35:02;99813.22;;;15.22;61.13
40155;BME280;25875;48.202;16.334;2023-05-03T07:37:29;99801.53;;;15.10;61.08
40155;BME280;25875;48.202;16.334;2023-05-03T07:39:56;99821.97;;;15.24;61.07
40155;BME280;25875;48.202;16.334;2023-05-03T07:42:24;99785.72;;;15.07;60.73
40155;BME280;25875;48.202;16.334;2023-05-03T07:44:51;99770.91;;;15.16;60.85
40155;BME280;25875;48.202;16.334;2023-05-03T07:47:19;99812.91;;;15.66;60.47
40155;BME280;25875;48.202;16.334;2023-05-03T07:49:45;99813.13;;;15.76;59.63
40155;BME280;25875;48.202;16.334;2023-05-03T07:52:15;99822.09;;;15.87;59.14
40155;BME280;25875;48.202;16.334;2023-05-03T07:54:42;99811.41;;;16.00;59.17
40155;BME280;25875;48.202;16.334;2023-05-03T07:57:10;99809.13;;;16.19;59.01
40155;BME280;25875;48.202;16.334;2023-05-03T07:59:38;99814.13;;;16.36;58.71
40155;BME280;25875;48.202;16.334;2023-05-03T08:02:05;99809.19;;;16.43;58.30
40155;BME280;25875;48.202;16.334;2023-05-03T08:04:31;99815.84;;;16.38;58.75
40155;BME280;25875;48.202;16.334;2023-05-03T08:06:59;99815.97;;;16.36;58.62
40155;BME280;25875;48.202;16.334;2023-05-03T08:09:26;99793.72;;;16.23;59.01
40155;BME280;25875;48.202;16.334;2023-05-03T08:11:53;99822.16;;;16.36;58.97
40155;BME280;25875;48.202;16.334;2023-05-03T08:14:20;99674.59;;;15.69;58.96
40155;BME280;25875;48.202;16.334;2023-05-03T08:16:48;99814.47;;;16.81;58.12
40155;BME280;25875;48.202;16.334;2023-05-03T08:19:15;99818.22;;;17.03;57.47
40155;BME280;25875;48.202;16.334;2023-05-03T08:21:42;99817.03;;;17.07;56.68
40155;BME280;25875;48.202;16.334;2023-05-03T08:24:11;99815.44;;;17.04;56.67
40155;BME280;25875;48.202;16.334;2023-05-03T08:26:38;99822.22;;;16.97;56.31
40155;BME280;25875;48.202;16.334;2023-05-03T08:29:05;99822.06;;;17.11;56.78
40155;BME280;25875;48.202;16.334;2023-05-03T08:31:32;99818.38;;;17.25;56.27
40155;BME280;25875;48.202;16.334;2023-05-03T08:34:01;99796.88;;;17.14;56.13
40155;BME280;25875;48.202;16.334;2023-05-03T08:36:28;99819.22;;;17.25;55.84
40155;BME280;25875;48.202;16.334;2023-05-03T08:38:56;99805.09;;;17.23;55.35
40155;BME280;25875;48.202;16.334;2023-05-03T08:41:27;99817.41;;;17.61;53.74
40155;BME280;25875;48.202;16.334;2023-05-03T08:43:55;99816.38;;;17.86;54.45
40155;BME280;25875;48.202;16.334;2023-05-03T08:46:23;99819.56;;;18.02;53.77
40155;BME280;25875;48.202;16.334;2023-05-03T08:48:51;99826.78;;;18.13;53.17
40155;BME280;25875;48.202;16.334;2023-05-03T08:51:21;99822.88;;;18.28;52.51
40155;BME280;25875;48.202;16.334;2023-05-03T08:53:49;99816.53;;;18.40;52.57
40155;BME280;25875;48.202;16.334;2023-05-03T08:56:23;99781.88;;;18.37;50.28
40155;BME280;25875;48.202;16.334;2023-05-03T08:58:51;99819.06;;;18.75;51.51
40155;BME280;25875;48.202;16.334;2023-05-03T09:01:18;99811.72;;;18.88;51.56
40155;BME280;25875;48.202;16.334;2023-05-03T09:03:48;99812.53;;;19.00;50.48
40155;BME280;25875;48.202;16.334;2023-05-03T09:06:20;99811.13;;;19.17;49.14
40155;BME280;25875;48.202;16.334;2023-05-03T09:08:50;99816.25;;;19.20;50.44
40155;BME280;25875;48.202;16.334;2023-05-03T09:11:21;99564.13;;;17.11;49.06
40155;BME280;25875;48.202;16.334;2023-05-03T09:13:49;99809.81;;;19.43;49.65
40155;BME280;25875;48.202;16.334;2023-05-03T09:16:26;99803.34;;;19.46;46.53
40155;BME280;25875;48.202;16.334;2023-05-03T09:18:58;99807.00;;;19.66;47.82
40155;BME280;25875;48.202;16.334;2023-05-03T09:21:27;99803.41;;;19.76;48.50
40155;BME280;25875;48.202;16.334;2023-05-03T09:23:55;99799.69;;;19.89;48.36
40155;BME280;25875;48.202;16.334;2023-05-03T09:26:30;99783.53;;;19.89;45.60
40155;BME280;25875;48.202;16.334;2023-05-03T09:28:58;99801.09;;;20.13;47.75
40155;BME280;25875;48.202;16.334;2023-05-03T09:31:26;99808.88;;;20.16;47.45
40155;BME280;25875;48.202;16.334;2023-05-03T09:33:54;99803.38;;;20.18;46.80
40155;BME280;25875;48.202;16.334;2023-05-03T09:36:20;99798.66;;;20.10;46.63
40155;BME280;25875;48.202;16.334;2023-05-03T09:38:50;99798.94;;;20.07;46.44
40155;BME280;25875;48.202;16.334;2023-05-03T09:41:25;99763.59;;;19.91;44.53
40155;BME280;25875;48.202;16.334;2023-05-03T09:43:53;99786.25;;;20.19;47.07
40155;BME280;25875;48.202;16.334;2023-05-03T09:46:22;99785.38;;;20.18;46.75
40155;BME280;25875;48.202;16.334;2023-05-03T09:48:50;99608.50;;;19.19;47.05
40155;BME280;25875;48.202;16.334;2023-05-03T09:51:21;99787.56;;;20.25;46.77
40155;BME280;25875;48.202;16.334;2023-05-03T09:53:50;99782.34;;;20.33;46.30
40155;BME280;25875;48.202;16.334;2023-05-03T09:56:17;99753.88;;;20.30;46.21
40155;BME280;25875;48.202;16.334;2023-05-03T09:58:47;99762.25;;;20.37;45.69
40155;BME280;25875;48.202;16.334;2023-05-03T10:01:14;99774.47;;;20.50;45.42
40155;BME280;25875;48.202;16.334;2023-05-03T10:03:43;99746.13;;;20.46;45.51
40155;BME280;25875;48.202;16.334;2023-05-03T10:06:19;99760.88;;;20.52;42.94
40155;BME280;25875;48.202;16.334;2023-05-03T10:08:51;99758.31;;;20.50;44.51
40155;BME280;25875;48.202;16.334;2023-05-03T10:11:18;99707.53;;;20.27;44.77
40155;BME280;25875;48.202;16.334;2023-05-03T10:13:46;99754.09;;;20.58;45.19
40155;BME280;25875;48.202;16.334;2023-05-03T10:16:20;99710.25;;;20.36;43.07
40155;BME280;25875;48.202;16.334;2023-05-03T10:18:53;99750.00;;;20.73;43.10
40155;BME280;25875;48.202;16.334;2023-05-03T10:21:28;99746.75;;;20.79;43.92
40155;BME280;25875;48.202;16.334;2023-05-03T10:24:11;99751.84;;;20.82;41.94
40155;BME280;25875;48.202;16.334;2023-05-03T10:26:39;99744.50;;;20.84;44.00
40155;BME280;25875;48.202;16.334;2023-05-03T10:32:35;99735.00;;;20.99;41.88
40155;BME280;25875;48.202;16.334;2023-05-03T10:35:07;99736.31;;;21.14;43.21
40155;BME280;25875;48.202;16.334;2023-05-03T10:37:34;99735.00;;;21.28;43.33
40155;BME280;25875;48.202;16.334;2023-05-03T10:40:12;99675.28;;;20.94;40.94
40155;BME280;25875;48.202;16.334;2023-05-03T10:42:42;99738.13;;;21.24;42.10
40155;BME280;25875;48.202;16.334;2023-05-03T10:45:19;99731.19;;;21.21;40.95
40155;BME280;25875;48.202;16.334;2023-05-03T10:48:14;99737.56;;;21.20;40.49
40155;BME280;25875;48.202;16.334;2023-05-03T10:50:45;99745.66;;;21.20;42.91
40155;BME280;25875;48.202;16.334;2023-05-03T10:53:33;99737.44;;;21.12;39.43
40155;BME280;25875;48.202;16.334;2023-05-03T10:56:02;99741.94;;;21.02;42.59
40155;BME280;25875;48.202;16.334;2023-05-03T10:58:35;99746.03;;;20.87;42.23
40155;BME280;25875;48.202;16.334;2023-05-03T11:01:03;99743.34;;;20.67;43.06
40155;BME280;25875;48.202;16.334;2023-05-03T11:03:37;99754.22;;;20.56;42.15
40155;BME280;25875;48.202;16.334;2023-05-03T11:06:09;99749.53;;;20.48;43.19
40155;BME280;25875;48.202;16.334;2023-05-03T11:08:36;99721.44;;;20.32;43.29
40155;BME280;25875;48.202;16.334;2023-05-03T11:11:04;99728.25;;;20.36;42.79
40155;BME280;25875;48.202;16.334;2023-05-03T11:13:34;99748.69;;;20.58;42.86
40155;BME280;25875;48.202;16.334;2023-05-03T11:16:02;99777.47;;;20.57;43.10
40155;BME280;25875;48.202;16.334;2023-05-03T11:18:29;99747.44;;;20.62;42.69
40155;BME280;25875;48.202;16.334;2023-05-03T11:20:57;99740.06;;;20.64;42.22
40155;BME280;25875;48.202;16.334;2023-05-03T11:23:26;99740.09;;;20.73;41.89
40155;BME280;25875;48.202;16.334;2023-05-03T11:25:53;99744.06;;;20.79;41.79
40155;BME280;25875;48.202;16.334;2023-05-03T11:28:23;99732.56;;;20.77;41.10
40155;BME280;25875;48.202;16.334;2023-05-03T11:30:50;99740.22;;;20.72;41.33
40155;BME280;25875;48.202;16.334;2023-05-03T11:33:17;99744.75;;;20.62;41.72
40155;BME280;25875;48.202;16.334;2023-05-03T11:35:44;99741.91;;;20.63;41.99
40155;BME280;25875;48.202;16.334;2023-05-03T11:38:11;99665.38;;;20.06;42.35
40155;BME280;25875;48.202;16.334;2023-05-03T11:40:38;99741.72;;;20.45;42.10
40155;BME280;25875;48.202;16.334;2023-05-03T11:43:05;99737.81;;;20.19;41.82
40155;BME280;25875;48.202;16.334;2023-05-03T11:45:39;99741.41;;;19.99;40.26
40155;BME280;25875;48.202;16.334;2023-05-03T11:48:09;99743.88;;;19.81;41.98
40155;BME280;25875;48.202;16.334;2023-05-03T11:50:43;99750.28;;;19.69;40.13
40155;BME280;25875;48.202;16.334;2023-05-03T11:53:11;99748.56;;;19.68;42.25
40155;BME280;25875;48.202;16.334;2023-05-03T11:55:40;99747.28;;;19.62;41.74
40155;BME280;25875;48.202;16.334;2023-05-03T11:58:11;99744.25;;;19.55;42.33
40155;BME280;25875;48.202;16.334;2023-05-03T12:00:42;99706.03;;;19.31;41.62
40155;BME280;25875;48.202;16.334;2023-05-03T12:03:09;99730.03;;;19.44;42.55
40155;BME280;25875;48.202;16.334;2023-05-03T12:05:36;99739.59;;;19.58;42.54
40155;BME280;25875;48.202;16.334;2023-05-03T12:08:03;99747.53;;;19.59;42.55
40155;BME280;25875;48.202;16.334;2023-05-03T12:10:31;99736.59;;;19.51;42.51
40155;BME280;25875;48.202;16.334;2023-05-03T12:12:58;99743.47;;;19.44;42.81
40155;BME280;25875;48.202;16.334;2023-05-03T12:15:30;99738.59;;;19.38;42.45
40155;BME280;25875;48.202;16.334;2023-05-03T12:18:00;99739.59;;;19.37;42.71
40155;BME280;25875;48.202;16.334;2023-05-03T12:20:27;99722.66;;;19.25;43.41
40155;BME280;25875;48.202;16.334;2023-05-03T12:22:57;99735.81;;;19.39;43.31
40155;BME280;25875;48.202;16.334;2023-05-03T12:25:25;99693.84;;;19.06;43.67
40155;BME280;25875;48.202;16.334;2023-05-03T12:27:53;99744.47;;;19.43;43.51
40155;BME280;25875;48.202;16.334;2023-05-03T12:30:19;99727.31;;;19.23;43.51
40155;BME280;25875;48.202;16.334;2023-05-03T12:32:47;99751.63;;;19.21;43.38
40155;BME280;25875;48.202;16.334;2023-05-03T12:35:17;99734.38;;;19.03;43.37
40155;BME280;25875;48.202;16.334;2023-05-03T12:37:46;99723.69;;;18.92;43.89
40155;BME280;25875;48.202;16.334;2023-05-03T12:40:14;99749.44;;;18.95;43.94
40155;BME280;25875;48.202;16.334;2023-05-03T12:42:41;99721.47;;;18.65;44.37
40155;BME280;25875;48.202;16.334;2023-05-03T12:45:08;99752.44;;;18.69;44.25
40155;BME280;25875;48.202;16.334;2023-05-03T12:47:35;99749.53;;;18.61;44.57
40155;BME280;25875;48.202;16.334;2023-05-03T12:50:02;99748.09;;;18.57;44.86
40155;BME280;25875;48.202;16.334;2023-05-03T12:52:30;99747.50;;;18.53;44.74
40155;BME280;25875;48.202;16.334;2023-05-03T12:54:57;99742.25;;;18.52;45.03
40155;BME280;25875;48.202;16.334;2023-05-03T12:57:24;99736.50;;;18.45;45.02
40155;BME280;25875;48.202;16.334;2023-05-03T12:59:51;99712.63;;;18.31;44.68